createdAt,value
2019-02-08T00:01:53.713Z,100571.55
2019-02-08T00:04:23.187Z,100570.96
2019-02-08T00:06:52.672Z,100577.16
2019-02-08T00:09:22.215Z,100580.67
2019-02-08T00:11:51.989Z,100579.19
2019-02-08T00:14:21.462Z,100580.81
2019-02-08T00:16:50.963Z,100584.84
2019-02-08T00:19:20.499Z,100585.72
2019-02-08T00:21:49.978Z,100585.19
2019-02-08T00:24:19.530Z,100588.38
2019-02-08T00:26:49.289Z,100589.20
2019-02-08T00:29:18.767Z,100586.87
2019-02-08T00:31:48.264Z,100597.20
2019-02-08T00:34:17.837Z,100593.75
2019-02-08T00:36:47.327Z,100590.16
2019-02-08T00:39:16.881Z,100588.72
2019-02-08T00:41:46.740Z,100595.20
2019-02-08T00:44:16.208Z,100611.12
2019-02-08T00:46:45.706Z,100600.27
2019-02-08T00:49:15.201Z,100607.78
2019-02-08T00:51:44.692Z,100601.20
2019-02-08T00:54:14.164Z,100604.30
2019-02-08T00:56:43.651Z,100616.02
2019-02-08T00:59:13.117Z,100613.30
2019-02-08T01:01:42.752Z,100611.23
2019-02-08T01:04:12.234Z,100616.09
2019-02-08T01:06:41.808Z,100613.83
2019-02-08T01:09:11.295Z,100615.63
2019-02-08T01:11:40.855Z,100602.36
2019-02-08T01:14:10.608Z,100611.40
2019-02-08T01:16:40.163Z,100610.14
2019-02-08T01:19:09.764Z,100615.41
2019-02-08T01:21:39.319Z,100619.17
2019-02-08T01:24:08.794Z,100621.13
2019-02-08T01:26:38.285Z,100625.04
2019-02-08T01:29:07.848Z,100621.51
2019-02-08T01:31:37.359Z,100619.70
2019-02-08T01:34:06.903Z,100624.94
2019-02-08T01:36:37.369Z,100633.53
2019-02-08T01:39:08.298Z,100631.83
2019-02-08T01:41:37.853Z,100631.83
2019-02-08T01:44:07.402Z,100634.90
2019-02-08T01:46:36.893Z,100631.49
2019-02-08T01:49:06.440Z,100621.94
2019-02-08T01:51:35.927Z,100625.19
2019-02-08T01:54:05.556Z,100625.68
2019-02-08T01:56:35.038Z,100620.95
2019-02-08T01:59:04.594Z,100629.56
2019-02-08T02:01:34.140Z,100628.52
2019-02-08T02:04:03.725Z,100636.50
2019-02-08T02:06:33.212Z,100636.22
2019-02-08T02:09:02.769Z,100635.56
2019-02-08T02:11:33.224Z,100641.73
2019-02-08T02:14:02.751Z,100638.97
2019-02-08T02:16:32.307Z,100635.56
2019-02-08T02:19:01.786Z,100637.64
2019-02-08T02:21:31.277Z,100639.50
2019-02-08T02:24:00.773Z,100645.95
2019-02-08T02:26:30.281Z,100651.19
2019-02-08T02:28:59.768Z,100646.09
2019-02-08T02:31:29.270Z,100654.73
2019-02-08T02:33:58.743Z,100652.89
2019-02-08T02:36:28.223Z,100658.21
2019-02-08T02:38:57.703Z,100657.34
2019-02-08T02:41:27.199Z,100664.28
2019-02-08T02:43:56.715Z,100670.23
2019-02-08T02:46:26.161Z,100662.62
2019-02-08T02:48:56.678Z,100670.59
2019-02-08T02:51:26.166Z,100669.15
2019-02-08T02:53:55.644Z,100670.55
2019-02-08T02:56:25.145Z,100679.09
2019-02-08T02:58:54.621Z,100675.41
2019-02-08T03:01:24.094Z,100671.16
2019-02-08T03:03:53.654Z,100667.52
2019-02-08T03:06:23.354Z,100658.28
2019-02-08T03:08:52.861Z,100661.48
2019-02-08T03:11:22.349Z,100653.98
2019-02-08T03:13:51.825Z,100657.77
2019-02-08T03:16:21.301Z,100663.52
2019-02-08T03:18:50.783Z,100663.03
2019-02-08T03:21:20.376Z,100655.95
2019-02-08T03:23:49.854Z,100660.52
2019-02-08T03:26:19.324Z,100660.80
2019-02-08T03:28:48.815Z,100664.80
2019-02-08T03:31:18.354Z,100659.44
2019-02-08T03:33:47.831Z,100663.07
2019-02-08T03:36:17.316Z,100665.52
2019-02-08T03:38:46.809Z,100661.25
2019-02-08T03:41:16.296Z,100667.41
2019-02-08T03:43:45.877Z,100665.34
2019-02-08T03:46:15.378Z,100661.12
2019-02-08T03:48:44.923Z,100662.98
2019-02-08T03:51:15.389Z,100668.98
2019-02-08T03:53:44.903Z,100667.06
2019-02-08T03:56:14.379Z,100663.13
2019-02-08T03:58:43.863Z,100675.88
2019-02-08T04:01:14.068Z,100609.14
2019-02-08T04:03:43.617Z,100673.77
2019-02-08T04:06:13.080Z,100669.07
2019-02-08T04:08:42.676Z,100667.07
2019-02-08T04:11:12.205Z,100666.07
2019-02-08T04:13:41.680Z,100674.80
2019-02-08T04:16:11.157Z,100669.36
2019-02-08T04:18:42.619Z,100672.29
2019-02-08T04:21:13.234Z,100677.56
2019-02-08T04:23:42.809Z,100667.41
2019-02-08T04:26:12.497Z,100671.02
2019-02-08T04:28:42.099Z,100663.93
2019-02-08T04:31:11.636Z,100669.39
2019-02-08T04:33:41.117Z,100666.39
2019-02-08T04:36:10.726Z,100658.66
2019-02-08T04:38:40.261Z,100652.95
2019-02-08T04:41:09.762Z,100659.37
2019-02-08T04:43:39.262Z,100664.69
2019-02-08T04:46:08.747Z,100660.52
2019-02-08T04:48:38.267Z,100650.03
2019-02-08T04:51:07.866Z,100650.77
2019-02-08T04:53:37.399Z,100644.63
2019-02-08T04:56:06.908Z,100646.75
2019-02-08T04:58:36.511Z,100654.50
2019-02-08T05:01:06.078Z,100652.91
2019-02-08T05:03:35.743Z,100654.25
2019-02-08T05:06:05.309Z,100646.91
2019-02-08T05:08:34.829Z,100648.56
2019-02-08T05:11:04.302Z,100645.02
2019-02-08T05:13:33.833Z,100655.26
2019-02-08T05:16:03.309Z,100647.80
2019-02-08T05:18:32.849Z,100653.20
2019-02-08T05:21:02.349Z,100644.02
2019-02-08T05:23:31.841Z,100648.88
2019-02-08T05:26:01.325Z,100645.02
2019-02-08T05:28:30.808Z,100643.23
2019-02-08T05:31:00.299Z,100640.34
2019-02-08T05:33:29.881Z,100636.02
2019-02-08T05:35:59.360Z,100640.20
2019-02-08T05:38:28.873Z,100635.31
2019-02-08T05:40:58.378Z,100634.77
2019-02-08T05:43:27.894Z,100628.83
2019-02-08T05:45:57.382Z,100629.23
2019-02-08T05:48:26.864Z,100638.88
2019-02-08T05:50:56.340Z,100635.02
2019-02-08T05:53:25.993Z,100634.61
2019-02-08T05:55:55.475Z,100630.67
2019-02-08T05:58:25.118Z,100629.86
2019-02-08T06:00:58.608Z,100635.75
2019-02-08T06:03:28.201Z,100630.78
2019-02-08T06:05:57.836Z,100632.32
2019-02-08T06:08:27.356Z,100623.45
2019-02-08T06:10:56.831Z,100624.23
2019-02-08T06:13:26.430Z,100624.59
2019-02-08T06:15:55.920Z,100622.89
2019-02-08T06:18:25.470Z,100616.37
2019-02-08T06:20:55.026Z,100624.31
2019-02-08T06:23:24.646Z,100617.10
2019-02-08T06:25:54.147Z,100608.95
2019-02-08T06:28:23.633Z,100611.30
2019-02-08T06:30:53.126Z,100604.38
2019-02-08T06:33:22.700Z,100612.52
2019-02-08T06:35:52.299Z,100605.75
2019-02-08T06:38:21.797Z,100606.73
2019-02-08T06:40:51.344Z,100610.08
2019-02-08T06:43:20.835Z,100595.17
2019-02-08T06:45:50.408Z,100598.55
2019-02-08T06:48:19.902Z,100604.35
2019-02-08T06:50:49.426Z,100617.38
2019-02-08T06:53:20.001Z,100611.81
2019-02-08T06:55:53.797Z,100612.34
2019-02-08T06:58:45.813Z,100619.43
2019-02-08T07:01:40.360Z,100623.66
2019-02-08T07:04:35.329Z,100620.56
2019-02-08T07:07:19.853Z,100619.23
2019-02-08T07:10:02.475Z,100620.19
2019-02-08T07:12:50.124Z,100622.78
2019-02-08T07:15:53.831Z,100622.84
2019-02-08T07:18:43.685Z,100621.91
2019-02-08T07:21:24.868Z,100624.51
2019-02-08T07:24:12.445Z,100626.94
2019-02-08T07:26:54.117Z,100629.31
2019-02-08T07:29:39.836Z,100626.11
2019-02-08T07:32:31.454Z,100621.21
2019-02-08T07:35:18.337Z,100617.70
2019-02-08T07:37:55.392Z,100623.31
2019-02-08T07:40:44.341Z,100625.53
2019-02-08T07:43:31.839Z,100628.50
2019-02-08T07:46:15.017Z,100628.78
2019-02-08T07:49:09.703Z,100627.97
2019-02-08T07:52:04.622Z,100632.92
2019-02-08T07:54:53.715Z,100635.23
2019-02-08T07:57:41.436Z,100627.91
2019-02-08T08:00:24.271Z,100628.05
2019-02-08T08:03:08.255Z,100618.71
2019-02-08T08:05:58.009Z,100630.03
2019-02-08T08:08:45.532Z,100624.31
2019-02-08T08:11:49.677Z,100624.14
2019-02-08T08:14:37.308Z,100615.12
2019-02-08T08:17:41.185Z,100623.91
2019-02-08T08:20:33.359Z,100630.10
2019-02-08T08:23:23.959Z,100616.94
2019-02-08T08:26:25.905Z,100621.72
2019-02-08T08:29:21.519Z,100624.45
2019-02-08T08:32:03.135Z,100623.42
2019-02-08T08:34:59.667Z,100621.25
2019-02-08T08:38:10.539Z,100624.58
2019-02-08T08:41:23.397Z,100617.83
2019-02-08T08:44:43.575Z,100619.85
2019-02-08T08:47:46.503Z,100607.99
2019-02-08T08:50:47.204Z,100622.55
2019-02-08T08:54:12.304Z,100619.14
2019-02-08T08:57:18.256Z,100622.27
2019-02-08T09:00:31.696Z,100611.95
2019-02-08T09:03:38.169Z,100611.14
2019-02-08T09:06:24.901Z,100607.55
2019-02-08T09:09:27.052Z,100601.09
2019-02-08T09:12:05.973Z,100608.26
2019-02-08T09:15:14.381Z,100610.29
2019-02-08T09:18:19.853Z,100602.48
2019-02-08T09:21:09.612Z,100598.45
2019-02-08T09:24:04.501Z,100602.07
2019-02-08T09:27:08.446Z,100601.09
2019-02-08T09:30:08.213Z,100603.87
2019-02-08T09:33:27.197Z,100592.42
2019-02-08T09:36:21.946Z,100598.54
2019-02-08T09:39:29.827Z,100595.95
2019-02-08T09:42:36.416Z,100600.58
2019-02-08T09:45:39.250Z,100594.14
2019-02-08T09:48:32.315Z,100591.18
2019-02-08T09:51:56.084Z,100602.42
2019-02-08T09:55:18.213Z,100601.95
2019-02-08T09:58:19.193Z,100584.04
2019-02-08T10:01:29.148Z,100596.23
2019-02-08T10:04:45.308Z,100597.59
2019-02-08T10:07:47.758Z,100594.11
2019-02-08T10:10:48.762Z,100591.88
2019-02-08T10:13:46.225Z,100587.34
2019-02-08T10:16:46.407Z,100574.78
2019-02-08T10:19:31.636Z,100581.64
2019-02-08T10:22:20.065Z,100576.72
2019-02-08T10:25:17.028Z,100584.31
2019-02-08T10:28:23.035Z,100582.66
2019-02-08T10:31:19.548Z,100582.30
2019-02-08T10:34:25.367Z,100580.12
2019-02-08T10:37:41.445Z,100582.81
2019-02-08T10:40:47.951Z,100584.27
2019-02-08T10:44:02.601Z,100574.84
2019-02-08T10:47:13.549Z,100519.60
2019-02-08T10:50:29.303Z,100574.97
2019-02-08T10:53:38.323Z,100574.34
2019-02-08T10:56:42.215Z,100574.44
2019-02-08T10:59:53.031Z,100562.87
2019-02-08T11:02:58.650Z,100569.02
2019-02-08T11:06:09.455Z,100571.30
2019-02-08T11:09:16.317Z,100561.33
2019-02-08T11:12:38.519Z,100558.41
2019-02-08T11:15:44.136Z,100551.63
2019-02-08T11:18:57.355Z,100542.89
2019-02-08T11:21:26.951Z,100539.21
2019-02-08T11:23:56.415Z,100533.94
2019-02-08T11:26:26.071Z,100514.41
2019-02-08T11:28:55.571Z,100516.96
2019-02-08T11:31:25.074Z,100513.32
2019-02-08T11:33:54.584Z,100519.19
2019-02-08T11:36:24.074Z,100512.50
2019-02-08T11:38:53.620Z,100516.19
2019-02-08T11:41:23.090Z,100513.37
2019-02-08T11:43:52.631Z,100513.62
2019-02-08T11:46:22.113Z,100501.03
2019-02-08T11:48:51.608Z,100504.58
2019-02-08T11:51:21.177Z,100494.75
2019-02-08T11:53:50.657Z,100490.92
2019-02-08T11:56:20.161Z,100481.14
2019-02-08T11:58:49.651Z,100496.36
2019-02-08T12:01:19.143Z,100486.03
2019-02-08T12:03:48.702Z,100478.22
2019-02-08T12:06:18.239Z,100471.06
2019-02-08T12:08:47.738Z,100479.16
2019-02-08T12:11:17.226Z,100472.38
2019-02-08T12:13:46.713Z,100473.16
2019-02-08T12:16:16.196Z,100479.00
2019-02-08T12:18:45.709Z,100474.17
2019-02-08T12:21:15.272Z,100468.17
2019-02-08T12:23:44.762Z,100461.02
2019-02-08T12:26:14.270Z,100470.62
2019-02-08T12:28:43.769Z,100462.03
2019-02-08T12:31:13.264Z,100460.68
2019-02-08T12:33:42.760Z,100448.72
2019-02-08T12:36:12.253Z,100445.52
2019-02-08T12:38:41.737Z,100445.63
2019-02-08T12:41:12.916Z,100420.92
2019-02-08T12:43:42.503Z,100420.92
2019-02-08T12:46:12.107Z,100432.47
2019-02-08T12:48:41.674Z,100421.88
2019-02-08T12:51:11.214Z,100415.64
2019-02-08T12:53:40.694Z,100413.81
2019-02-08T12:56:10.193Z,100409.37
2019-02-08T12:58:39.686Z,100414.50
2019-02-08T13:01:09.329Z,100411.50
2019-02-08T13:03:38.806Z,100410.44
2019-02-08T13:06:08.573Z,100409.64
2019-02-08T13:08:38.075Z,100398.52
2019-02-08T13:11:07.545Z,100393.37
2019-02-08T13:13:38.096Z,100387.61
2019-02-08T13:16:07.677Z,100380.03
2019-02-08T13:18:37.981Z,100375.69
2019-02-08T13:21:08.157Z,100377.47
2019-02-08T13:23:37.654Z,100376.16
2019-02-08T13:26:07.176Z,100369.63
2019-02-08T13:28:36.682Z,100378.94
2019-02-08T13:31:06.177Z,100371.38
2019-02-08T13:33:35.666Z,100369.53
2019-02-08T13:36:10.875Z,100373.35
2019-02-08T13:38:40.368Z,100369.18
2019-02-08T13:41:09.871Z,100360.53
2019-02-08T13:43:39.341Z,100363.05
2019-02-08T13:46:08.938Z,100361.74
2019-02-08T13:48:38.447Z,100358.27
2019-02-08T13:51:07.953Z,100352.72
2019-02-08T13:53:37.462Z,100349.55
2019-02-08T13:56:06.944Z,100349.55
2019-02-08T13:58:36.441Z,100337.83
2019-02-08T14:01:06.010Z,100336.87
2019-02-08T14:03:35.513Z,100340.66
2019-02-08T14:06:05.354Z,100340.73
2019-02-08T14:08:34.858Z,100328.67
2019-02-08T14:11:04.350Z,100332.02
2019-02-08T14:13:40.456Z,100330.15
2019-02-08T14:16:05.107Z,100325.46
2019-02-08T14:18:34.594Z,100329.39
2019-02-08T14:21:04.146Z,100322.44
2019-02-08T14:23:33.628Z,100324.12
2019-02-08T14:26:03.111Z,100328.52
2019-02-08T14:28:32.605Z,100325.94
2019-02-08T14:31:02.173Z,100321.05
2019-02-08T14:33:31.670Z,100322.33
2019-02-08T14:36:01.193Z,100321.50
2019-02-08T14:38:30.707Z,100316.41
2019-02-08T14:41:00.216Z,100303.05
2019-02-08T14:43:29.738Z,100310.20
2019-02-08T14:45:59.249Z,100301.94
2019-02-08T14:48:28.726Z,100292.23
2019-02-08T14:50:58.226Z,100282.38
2019-02-08T14:53:28.371Z,100275.97
2019-02-08T14:55:57.886Z,100280.99
2019-02-08T14:58:27.440Z,100288.27
2019-02-08T15:00:56.913Z,100273.10
2019-02-08T15:03:26.408Z,100276.06
2019-02-08T15:05:55.889Z,100281.16
2019-02-08T15:08:25.376Z,100278.91
2019-02-08T15:10:54.870Z,100262.84
2019-02-08T15:13:24.401Z,100265.01
2019-02-08T15:15:53.939Z,100263.22
2019-02-08T15:18:23.467Z,100258.61
2019-02-08T15:20:53.046Z,100257.74
2019-02-08T15:23:22.590Z,100244.75
2019-02-08T15:25:52.118Z,100249.88
2019-02-08T15:28:21.599Z,100245.72
2019-02-08T15:30:51.102Z,100236.70
2019-02-08T15:33:20.602Z,100229.59
2019-02-08T15:35:50.140Z,100233.44
2019-02-08T15:38:19.804Z,100229.14
2019-02-08T15:40:52.360Z,100230.34
2019-02-08T15:43:23.530Z,100217.20
2019-02-08T15:46:01.042Z,100218.99
2019-02-08T15:48:30.541Z,100228.66
2019-02-08T15:51:00.054Z,100225.99
2019-02-08T15:53:29.566Z,100234.27
2019-02-08T15:56:11.527Z,100216.30
2019-02-08T15:58:41.101Z,100220.00
2019-02-08T16:01:12.039Z,100211.84
2019-02-08T16:03:42.593Z,100211.50
2019-02-08T16:06:12.167Z,100195.00
2019-02-08T16:08:41.788Z,100215.39
2019-02-08T16:11:11.374Z,100204.27
2019-02-08T16:13:41.869Z,100200.91
2019-02-08T16:16:11.911Z,100190.98
2019-02-08T16:18:41.481Z,100191.13
2019-02-08T16:21:11.057Z,100186.52
2019-02-08T16:23:40.538Z,100182.13
2019-02-08T16:26:10.090Z,100183.15
2019-02-08T16:28:39.564Z,100187.18
2019-02-08T16:31:09.148Z,100173.63
2019-02-08T16:33:38.634Z,100181.09
2019-02-08T16:36:08.198Z,100179.09
2019-02-08T16:38:37.693Z,100176.58
2019-02-08T16:41:07.270Z,100159.48
2019-02-08T16:43:36.781Z,100164.02
2019-02-08T16:46:06.265Z,100171.66
2019-02-08T16:48:35.763Z,100161.12
2019-02-08T16:51:05.527Z,100158.58
2019-02-08T16:53:35.034Z,100156.55
2019-02-08T16:56:05.359Z,100155.66
2019-02-08T16:58:34.860Z,100144.12
2019-02-08T17:01:05.509Z,100137.31
2019-02-08T17:03:35.017Z,100141.41
2019-02-08T17:06:05.173Z,100135.73
2019-02-08T17:08:34.705Z,100130.00
2019-02-08T17:11:04.198Z,100127.88
2019-02-08T17:13:34.631Z,100123.61
2019-02-08T17:16:04.878Z,100120.17
2019-02-08T17:18:34.438Z,100097.50
2019-02-08T17:21:03.930Z,100110.72
2019-02-08T17:23:33.409Z,100098.87
2019-02-08T17:26:02.964Z,100101.57
2019-02-08T17:28:32.446Z,100098.87
2019-02-08T17:31:01.967Z,100089.86
2019-02-08T17:33:31.430Z,100093.78
2019-02-08T17:36:00.934Z,100097.52
2019-02-08T17:38:30.441Z,100095.38
2019-02-08T17:41:00.144Z,100087.63
2019-02-08T17:43:29.649Z,100058.00
2019-02-08T17:45:59.162Z,100082.44
2019-02-08T17:48:28.661Z,100078.73
2019-02-08T17:50:58.180Z,100066.71
2019-02-08T17:53:27.699Z,100076.07
2019-02-08T17:55:57.195Z,100067.66
2019-02-08T17:58:26.698Z,100059.16
2019-02-08T18:00:59.990Z,100057.53
2019-02-08T18:03:30.443Z,100061.70
2019-02-08T18:05:59.961Z,100051.05
2019-02-08T18:08:29.458Z,100052.41
2019-02-08T18:10:58.950Z,100043.16
2019-02-08T18:13:29.325Z,100029.20
2019-02-08T18:15:58.811Z,100030.73
2019-02-08T18:18:28.295Z,100021.97
2019-02-08T18:21:00.951Z,100014.30
2019-02-08T18:23:30.433Z,100016.33
2019-02-08T18:25:59.941Z,100005.80
2019-02-08T18:28:30.424Z,100011.62
2019-02-08T18:30:59.953Z,100007.66
2019-02-08T18:33:29.481Z,100000.94
2019-02-08T18:35:59.020Z,100011.39
2019-02-08T18:38:28.522Z,100002.70
2019-02-08T18:40:58.044Z,99996.67
2019-02-08T18:43:27.563Z,99980.75
2019-02-08T18:45:57.517Z,99987.62
2019-02-08T18:48:27.016Z,99971.09
2019-02-08T18:50:57.584Z,99976.73
2019-02-08T18:53:27.138Z,99982.66
2019-02-08T18:55:56.616Z,99971.56
2019-02-08T18:58:26.122Z,99971.20
2019-02-08T19:00:55.770Z,99966.96
2019-02-08T19:03:25.257Z,99957.14
2019-02-08T19:05:54.747Z,99954.22
2019-02-08T19:08:24.304Z,99943.11
2019-02-08T19:10:53.778Z,99942.25
2019-02-08T19:13:23.256Z,99943.00
2019-02-08T19:15:52.741Z,99926.08
2019-02-08T19:18:22.240Z,99932.66
2019-02-08T19:20:51.742Z,99939.06
2019-02-08T19:23:21.243Z,99935.59
2019-02-08T19:25:50.731Z,99931.38
2019-02-08T19:28:26.277Z,99919.01
2019-02-08T19:30:51.471Z,99920.77
2019-02-08T19:33:20.973Z,99918.13
2019-02-08T19:35:50.491Z,99921.14
2019-02-08T19:38:20.067Z,99915.58
2019-02-08T19:40:49.625Z,99906.20
2019-02-08T19:43:19.134Z,99908.75
2019-02-08T19:45:48.589Z,99893.34
2019-02-08T19:48:18.085Z,99892.08
2019-02-08T19:50:47.589Z,99891.16
2019-02-08T19:53:17.074Z,99887.86
2019-02-08T19:55:46.562Z,99895.47
2019-02-08T19:58:16.055Z,99889.42
2019-02-08T20:00:45.652Z,99881.34
2019-02-08T20:03:15.150Z,99881.34
2019-02-08T20:05:44.714Z,99875.52
2019-02-08T20:08:14.694Z,99882.38
2019-02-08T20:10:46.135Z,99879.86
2019-02-08T20:13:15.678Z,99865.78
2019-02-08T20:15:45.494Z,99870.92
2019-02-08T20:18:15.284Z,99865.06
2019-02-08T20:20:44.799Z,99862.56
2019-02-08T20:23:14.301Z,99858.19
2019-02-08T20:25:43.871Z,99849.39
2019-02-08T20:28:13.439Z,99851.07
2019-02-08T20:30:42.938Z,99846.84
2019-02-08T20:33:12.512Z,99836.72
2019-02-08T20:35:42.007Z,99836.66
2019-02-08T20:38:11.572Z,99834.55
2019-02-08T20:40:46.451Z,99826.89
2019-02-08T20:43:15.948Z,99822.64
2019-02-08T20:45:45.492Z,99825.61
2019-02-08T20:48:18.355Z,99818.80
2019-02-08T20:50:48.140Z,99822.75
2019-02-08T20:53:17.715Z,99812.55
2019-02-08T20:55:47.300Z,99805.23
2019-02-08T20:58:16.892Z,99815.00
2019-02-08T21:00:51.425Z,99809.87
2019-02-08T21:03:21.797Z,99806.07
2019-02-08T21:05:51.454Z,99812.85
2019-02-08T21:08:21.461Z,99804.84
2019-02-08T21:10:50.944Z,99808.30
2019-02-08T21:13:20.517Z,99796.86
2019-02-08T21:15:50.109Z,99801.04
2019-02-08T21:18:19.575Z,99788.30
2019-02-08T21:20:49.231Z,99776.46
2019-02-08T21:23:18.741Z,99785.24
2019-02-08T21:25:52.315Z,99788.19
2019-02-08T21:28:20.445Z,99777.98
2019-02-08T21:30:50.013Z,99774.97
2019-02-08T21:33:19.574Z,99788.95
2019-02-08T21:35:49.607Z,99777.47
2019-02-08T21:38:19.255Z,99771.92
2019-02-08T21:40:48.784Z,99764.35
2019-02-08T21:43:18.234Z,99763.92
2019-02-08T21:45:47.801Z,99758.50
2019-02-08T21:48:17.279Z,99752.11
2019-02-08T21:50:46.783Z,99744.46
2019-02-08T21:53:16.264Z,99741.05
2019-02-08T21:55:45.776Z,99742.63
2019-02-08T21:58:15.269Z,99731.56
2019-02-08T22:00:45.002Z,99726.48
2019-02-08T22:03:14.487Z,99721.80
2019-02-08T22:05:47.039Z,99715.39
2019-02-08T22:08:16.748Z,99706.45
2019-02-08T22:10:46.252Z,99700.41
2019-02-08T22:13:15.775Z,99703.41
2019-02-08T22:15:45.397Z,99694.13
2019-02-08T22:18:14.892Z,99687.78
2019-02-08T22:20:44.457Z,99685.97
2019-02-08T22:23:13.946Z,99674.97
2019-02-08T22:25:43.527Z,99674.05
2019-02-08T22:28:13.130Z,99675.34
2019-02-08T22:30:42.717Z,99674.91
2019-02-08T22:33:12.224Z,99669.44
2019-02-08T22:35:41.803Z,99667.38
2019-02-08T22:38:11.401Z,99668.20
2019-02-08T22:40:40.931Z,99669.42
2019-02-08T22:43:10.452Z,99657.93
2019-02-08T22:45:40.867Z,99665.55
2019-02-08T22:48:10.496Z,99667.26
2019-02-08T22:50:40.020Z,99657.98
2019-02-08T22:53:09.904Z,99652.90
2019-02-08T22:55:39.568Z,99655.07
2019-02-08T22:58:09.314Z,99659.34
2019-02-08T23:01:17.384Z,99645.36
2019-02-08T23:03:46.881Z,99636.39
2019-02-08T23:06:17.347Z,99641.92
2019-02-08T23:08:47.738Z,99644.48
2019-02-08T23:11:17.296Z,99623.62
2019-02-08T23:13:46.763Z,99642.73
2019-02-08T23:16:16.337Z,99628.03
2019-02-08T23:18:45.868Z,99637.73
2019-02-08T23:21:15.360Z,99636.94
2019-02-08T23:23:44.918Z,99635.64
2019-02-08T23:26:14.416Z,99629.33
2019-02-08T23:28:43.975Z,99628.91
2019-02-08T23:31:13.738Z,99627.61
2019-02-08T23:33:43.313Z,99624.11
2019-02-08T23:36:12.884Z,99624.56
2019-02-08T23:38:42.427Z,99621.23
2019-02-08T23:41:11.915Z,99617.08
2019-02-08T23:43:41.403Z,99612.47
2019-02-08T23:46:10.949Z,99605.20
2019-02-08T23:48:40.413Z,99606.81
2019-02-08T23:51:09.889Z,99607.22
2019-02-08T23:53:39.361Z,99603.02
2019-02-08T23:56:08.838Z,99594.50
2019-02-08T23:58:38.339Z,99590.78
